createdAt,value
2023-01-21T00:01:33.731Z,100.00
2023-01-21T00:05:07.347Z,100.00
2023-01-21T00:08:44.375Z,100.00
2023-01-21T00:12:21.482Z,100.00
2023-01-21T00:16:02.477Z,100.00
2023-01-21T00:19:38.675Z,100.00
2023-01-21T00:23:35.505Z,100.00
2023-01-21T00:26:59.664Z,100.00
2023-01-21T00:30:38.448Z,100.00
2023-01-21T00:34:15.433Z,100.00
2023-01-21T00:37:54.040Z,100.00
2023-01-21T00:41:32.085Z,100.00
2023-01-21T00:45:30.042Z,100.00
2023-01-21T00:48:57.330Z,100.00
2023-01-21T00:52:32.872Z,100.00
2023-01-21T00:56:15.113Z,100.00
2023-01-21T00:59:47.791Z,100.00
2023-01-21T01:03:46.853Z,100.00
2023-01-21T01:07:29.736Z,100.00
2023-01-21T01:10:55.158Z,100.00
2023-01-21T01:14:52.543Z,100.00
2023-01-21T01:18:17.482Z,100.00
2023-01-21T01:21:55.380Z,100.00
2023-01-21T01:25:31.615Z,100.00
2023-01-21T01:29:31.314Z,100.00
2023-01-21T01:33:14.408Z,100.00
2023-01-21T01:36:57.185Z,100.00
2023-01-21T01:40:22.322Z,100.00
2023-01-21T01:44:50.051Z,100.00
2023-01-21T01:48:25.836Z,100.00
2023-01-21T01:52:03.627Z,100.00
2023-01-21T01:55:33.945Z,100.00
2023-01-21T01:59:11.163Z,100.00
2023-01-21T02:03:07.874Z,100.00
2023-01-21T02:06:33.197Z,100.00
2023-01-21T02:10:12.793Z,100.00
2023-01-21T02:14:08.959Z,100.00
2023-01-21T02:17:49.014Z,100.00
2023-01-21T02:21:36.517Z,100.00
2023-01-21T02:25:38.076Z,100.00
2023-01-21T02:29:15.189Z,100.00
2023-01-21T02:33:26.687Z,100.00
2023-01-21T02:37:11.224Z,100.00
2023-01-21T02:40:52.929Z,100.00
2023-01-21T02:44:42.940Z,100.00
2023-01-21T02:48:32.026Z,100.00
2023-01-21T02:52:21.762Z,100.00
2023-01-21T02:55:46.851Z,100.00
2023-01-21T02:59:23.442Z,100.00
2023-01-21T03:03:31.971Z,100.00
2023-01-21T03:07:46.172Z,100.00
2023-01-21T03:11:17.199Z,100.00
2023-01-21T03:15:20.345Z,100.00
2023-01-21T03:18:51.456Z,100.00
2023-01-21T03:22:29.161Z,100.00
2023-01-21T03:26:01.743Z,100.00
2023-01-21T03:29:42.317Z,100.00
2023-01-21T03:33:39.054Z,100.00
2023-01-21T03:37:11.956Z,100.00
2023-01-21T03:40:56.316Z,100.00
2023-01-21T03:44:41.497Z,100.00
2023-01-21T03:48:20.041Z,100.00
2023-01-21T03:51:52.723Z,100.00
2023-01-21T03:55:23.593Z,100.00
2023-01-21T03:58:59.865Z,100.00
2023-01-21T04:02:56.672Z,100.00
2023-01-21T04:06:23.887Z,100.00
2023-01-21T04:10:17.982Z,100.00
2023-01-21T04:13:42.376Z,100.00
2023-01-21T04:17:20.175Z,100.00
2023-01-21T04:20:58.633Z,100.00
2023-01-21T04:24:37.109Z,100.00
2023-01-21T04:28:13.327Z,100.00
2023-01-21T04:32:11.189Z,100.00
2023-01-21T04:35:36.233Z,100.00
2023-01-21T04:39:13.329Z,100.00
2023-01-21T04:43:10.648Z,100.00
2023-01-21T04:46:34.091Z,100.00
2023-01-21T04:50:30.855Z,100.00
2023-01-21T04:54:14.823Z,100.00
2023-01-21T04:57:40.398Z,100.00
2023-01-21T05:01:35.008Z,100.00
2023-01-21T05:04:58.614Z,100.00
2023-01-21T05:08:56.892Z,100.00
2023-01-21T05:12:22.234Z,100.00
2023-01-21T05:16:08.072Z,100.00
2023-01-21T05:19:36.618Z,100.00
2023-01-21T05:23:15.507Z,100.00
2023-01-21T05:26:51.827Z,100.00
2023-01-21T05:30:32.306Z,100.00
2023-01-21T05:34:08.378Z,100.00
2023-01-21T05:37:47.725Z,100.00
2023-01-21T05:41:43.727Z,100.00
2023-01-21T05:45:08.229Z,100.00
2023-01-21T05:48:47.661Z,100.00
2023-01-21T05:52:24.965Z,100.00
2023-01-21T05:56:01.761Z,100.00
2023-01-21T05:59:40.477Z,100.00
2023-01-21T06:03:37.374Z,100.00
2023-01-21T06:07:21.556Z,100.00
2023-01-21T06:10:45.314Z,100.00
2023-01-21T06:14:43.555Z,100.00
2023-01-21T06:18:08.340Z,100.00
2023-01-21T06:21:45.714Z,100.00
2023-01-21T06:25:25.627Z,100.00
2023-01-21T06:29:00.965Z,100.00
2023-01-21T06:32:39.876Z,100.00
2023-01-21T06:36:16.111Z,100.00
2023-01-21T06:39:54.770Z,100.00
2023-01-21T06:43:31.375Z,100.00
2023-01-21T06:47:28.110Z,100.00
2023-01-21T06:50:53.520Z,100.00
2023-01-21T06:54:48.551Z,100.00
2023-01-21T06:58:12.397Z,100.00
2023-01-21T07:02:12.956Z,100.00
2023-01-21T07:05:37.836Z,100.00
2023-01-21T07:09:33.804Z,100.00
2023-01-21T07:13:16.690Z,100.00
2023-01-21T07:16:59.259Z,100.00
2023-01-21T07:20:27.896Z,100.00
2023-01-21T07:24:23.067Z,100.00
2023-01-21T07:27:47.051Z,100.00
2023-01-21T07:31:43.748Z,100.00
2023-01-21T07:35:27.999Z,100.00
2023-01-21T07:39:13.011Z,100.00
2023-01-21T07:42:38.418Z,100.00
2023-01-21T07:46:37.234Z,100.00
2023-01-21T07:50:08.764Z,100.00
2023-01-21T07:53:39.577Z,100.00
2023-01-21T07:57:35.393Z,100.00
2023-01-21T08:00:59.687Z,100.00
2023-01-21T08:04:37.303Z,100.00
2023-01-21T08:08:16.460Z,100.00
2023-01-21T08:11:52.607Z,100.00
2023-01-21T08:15:52.427Z,100.00
2023-01-21T08:19:16.501Z,100.00
2023-01-21T08:23:15.671Z,100.00
2023-01-21T08:26:40.320Z,100.00
2023-01-21T08:30:18.295Z,100.00
2023-01-21T08:33:57.967Z,100.00
2023-01-21T08:37:54.611Z,100.00
2023-01-21T08:41:19.152Z,100.00
2023-01-21T08:44:59.786Z,100.00
2023-01-21T08:48:33.865Z,100.00
2023-01-21T08:52:13.588Z,100.00
2023-01-21T08:55:49.283Z,100.00
2023-01-21T08:59:45.696Z,100.00
2023-01-21T09:03:09.390Z,100.00
2023-01-21T09:06:48.270Z,100.00
2023-01-21T09:10:44.126Z,100.00
2023-01-21T09:14:10.185Z,100.00
2023-01-21T09:17:47.743Z,100.00
2023-01-21T09:21:43.239Z,100.00
2023-01-21T09:25:11.571Z,100.00
2023-01-21T09:28:55.726Z,100.00
2023-01-21T09:32:43.582Z,100.00
2023-01-21T09:36:15.832Z,100.00
2023-01-21T09:39:49.064Z,100.00
2023-01-21T09:43:33.839Z,100.00
2023-01-21T09:47:10.524Z,100.00
2023-01-21T09:50:44.744Z,100.00
2023-01-21T09:54:33.667Z,100.00
2023-01-21T09:58:40.520Z,100.00
2023-01-21T10:02:16.239Z,100.00
2023-01-21T10:06:16.602Z,100.00
2023-01-21T10:10:04.595Z,100.00
2023-01-21T10:13:48.697Z,100.00
2023-01-21T10:18:04.162Z,100.00
2023-01-21T10:21:42.516Z,100.00
2023-01-21T10:25:31.825Z,100.00
2023-01-21T10:29:24.097Z,100.00
2023-01-21T10:32:54.511Z,100.00
2023-01-21T10:37:04.846Z,100.00
2023-01-21T10:41:01.688Z,100.00
2023-01-21T10:45:07.540Z,100.00
2023-01-21T10:49:18.097Z,100.00
2023-01-21T10:53:12.058Z,100.00
2023-01-21T10:57:17.559Z,100.00
2023-01-21T11:00:47.376Z,99.76
2023-01-21T11:04:40.542Z,99.60
2023-01-21T11:08:30.183Z,99.55
2023-01-21T11:12:19.903Z,99.17
2023-01-21T11:15:47.997Z,99.07
2023-01-21T11:19:41.681Z,99.54
2023-01-21T11:23:07.546Z,99.95
2023-01-21T11:27:05.865Z,100.00
2023-01-21T11:30:51.568Z,99.95
2023-01-21T11:34:23.678Z,99.49
2023-01-21T11:38:41.470Z,99.28
2023-01-21T11:42:18.865Z,99.26
2023-01-21T11:45:44.573Z,99.52
2023-01-21T11:49:33.598Z,99.47
2023-01-21T11:53:10.205Z,99.12
2023-01-21T11:56:39.499Z,99.64
2023-01-21T12:00:25.301Z,98.97
2023-01-21T12:03:55.307Z,98.77
2023-01-21T12:07:51.711Z,99.20
2023-01-21T12:11:34.308Z,98.96
2023-01-21T12:15:11.603Z,98.55
2023-01-21T12:19:17.648Z,98.92
2023-01-21T12:23:03.643Z,99.13
2023-01-21T12:26:56.348Z,99.43
2023-01-21T12:30:41.919Z,99.75
2023-01-21T12:34:17.274Z,99.75
2023-01-21T12:37:59.615Z,99.35
2023-01-21T12:41:47.979Z,98.84
2023-01-21T12:45:39.736Z,98.76
2023-01-21T12:49:15.492Z,99.03
2023-01-21T12:53:02.682Z,99.55
2023-01-21T12:56:40.852Z,99.96
2023-01-21T13:00:34.942Z,100.00
2023-01-21T13:04:44.155Z,99.67
2023-01-21T13:08:36.253Z,99.58
2023-01-21T13:12:19.061Z,99.11
2023-01-21T13:15:49.050Z,99.02
2023-01-21T13:19:24.385Z,99.28
2023-01-21T13:23:29.904Z,99.41
2023-01-21T13:27:26.128Z,98.51
2023-01-21T13:31:19.472Z,98.31
2023-01-21T13:34:57.559Z,98.07
2023-01-21T13:38:49.486Z,98.62
2023-01-21T13:42:54.237Z,99.05
2023-01-21T13:46:33.799Z,99.46
2023-01-21T13:50:30.782Z,99.45
2023-01-21T13:54:27.276Z,99.16
2023-01-21T13:58:17.117Z,99.35
2023-01-21T14:02:48.457Z,99.03
2023-01-21T14:06:45.270Z,99.00
2023-01-21T14:10:19.855Z,98.69
2023-01-21T14:14:20.751Z,98.96
2023-01-21T14:17:51.939Z,99.21
2023-01-21T14:21:28.628Z,99.17
2023-01-21T14:25:27.847Z,99.14
2023-01-21T14:28:58.981Z,99.01
2023-01-21T14:32:55.093Z,98.91
2023-01-21T14:37:02.172Z,98.53
2023-01-21T14:40:32.758Z,98.20
2023-01-21T14:44:04.844Z,97.99
2023-01-21T14:47:53.454Z,97.97
2023-01-21T14:51:43.975Z,98.14
2023-01-21T14:55:30.669Z,98.35
2023-01-21T14:59:33.629Z,98.35
2023-01-21T15:03:03.482Z,98.19
2023-01-21T15:06:39.481Z,97.93
2023-01-21T15:10:32.278Z,97.63
2023-01-21T15:14:30.213Z,97.48
2023-01-21T15:18:23.982Z,97.14
2023-01-21T15:22:00.331Z,97.18
2023-01-21T15:26:08.198Z,97.42
2023-01-21T15:29:37.999Z,97.89
2023-01-21T15:33:15.597Z,97.76
2023-01-21T15:36:57.355Z,97.01
2023-01-21T15:40:29.219Z,96.50
2023-01-21T15:44:35.321Z,96.55
2023-01-21T15:48:14.575Z,96.76
2023-01-21T15:52:07.788Z,96.67
2023-01-21T15:56:19.373Z,96.82
2023-01-21T16:00:19.615Z,96.59
2023-01-21T16:04:03.538Z,96.59
2023-01-21T16:07:56.165Z,97.02
2023-01-21T16:12:25.887Z,97.05
2023-01-21T16:16:24.928Z,97.29
2023-01-21T16:19:54.271Z,97.24
2023-01-21T16:23:37.676Z,97.03
2023-01-21T16:27:18.414Z,97.05
2023-01-21T16:31:05.078Z,96.57
2023-01-21T16:34:43.524Z,96.37
2023-01-21T16:38:30.441Z,96.37
2023-01-21T16:42:45.231Z,96.61
2023-01-21T16:46:16.483Z,96.84
2023-01-21T16:49:48.774Z,97.06
2023-01-21T16:53:25.989Z,96.99
2023-01-21T16:57:20.758Z,96.95
2023-01-21T17:01:00.062Z,96.61
2023-01-21T17:04:28.441Z,96.65
2023-01-21T17:08:23.743Z,96.48
2023-01-21T17:11:49.673Z,96.31
2023-01-21T17:15:38.591Z,96.45
2023-01-21T17:19:28.907Z,96.59
2023-01-21T17:23:25.112Z,96.73
2023-01-21T17:26:52.566Z,96.63
2023-01-21T17:30:46.270Z,96.53
2023-01-21T17:34:37.177Z,96.67
2023-01-21T17:38:05.846Z,96.73
2023-01-21T17:41:46.262Z,96.74
2023-01-21T17:45:41.087Z,96.54
2023-01-21T17:49:10.792Z,96.05
2023-01-21T17:52:52.028Z,96.08
2023-01-21T17:56:49.222Z,96.07
2023-01-21T18:00:42.042Z,96.17
2023-01-21T18:04:25.161Z,96.61
2023-01-21T18:07:51.341Z,96.75
2023-01-21T18:11:27.568Z,97.11
2023-01-21T18:15:27.347Z,97.36
2023-01-21T18:18:55.290Z,97.04
2023-01-21T18:22:32.192Z,96.63
2023-01-21T18:26:33.129Z,96.29
2023-01-21T18:30:01.710Z,96.17
2023-01-21T18:33:54.485Z,95.96
2023-01-21T18:37:22.954Z,96.14
2023-01-21T18:40:57.494Z,96.20
2023-01-21T18:44:53.504Z,96.38
2023-01-21T18:48:37.625Z,96.09
2023-01-21T18:52:01.707Z,96.50
2023-01-21T18:55:43.875Z,97.01
2023-01-21T18:59:20.180Z,96.64
2023-01-21T19:02:59.093Z,96.72
2023-01-21T19:06:54.656Z,96.59
2023-01-21T19:10:39.783Z,96.34
2023-01-21T19:14:06.244Z,96.22
2023-01-21T19:17:45.294Z,95.96
2023-01-21T19:21:20.249Z,96.20
2023-01-21T19:25:19.843Z,96.18
2023-01-21T19:28:46.127Z,96.40
2023-01-21T19:32:42.768Z,96.17
2023-01-21T19:36:29.726Z,96.42
2023-01-21T19:40:19.964Z,96.72
2023-01-21T19:43:46.422Z,96.38
2023-01-21T19:47:45.325Z,95.95
2023-01-21T19:51:14.905Z,95.92
2023-01-21T19:54:50.093Z,95.90
2023-01-21T19:58:32.561Z,96.14
2023-01-21T20:02:06.023Z,96.02
2023-01-21T20:05:43.067Z,96.63
2023-01-21T20:09:20.717Z,97.23
2023-01-21T20:12:59.694Z,97.15
2023-01-21T20:16:48.513Z,96.60
2023-01-21T20:20:19.471Z,96.27
2023-01-21T20:24:12.608Z,96.19
2023-01-21T20:27:39.743Z,96.72
2023-01-21T20:31:35.042Z,96.68
2023-01-21T20:35:20.538Z,96.24
2023-01-21T20:38:45.507Z,96.07
2023-01-21T20:42:23.671Z,96.07
2023-01-21T20:46:30.035Z,96.40
2023-01-21T20:49:56.499Z,96.79
2023-01-21T20:53:33.776Z,97.04
2023-01-21T20:57:14.724Z,97.10
2023-01-21T21:01:07.046Z,97.24
2023-01-21T21:04:51.784Z,96.93
2023-01-21T21:08:37.563Z,96.38
2023-01-21T21:12:03.561Z,96.36
2023-01-21T21:15:39.918Z,96.46
2023-01-21T21:19:17.217Z,96.78
2023-01-21T21:22:55.994Z,97.01
2023-01-21T21:26:39.447Z,96.84
2023-01-21T21:30:33.159Z,96.27
2023-01-21T21:33:57.386Z,96.74
2023-01-21T21:37:36.360Z,96.48
2023-01-21T21:41:36.869Z,96.83
2023-01-21T21:45:21.996Z,96.50
2023-01-21T21:48:46.743Z,96.92
2023-01-21T21:52:44.908Z,96.88
2023-01-21T21:56:14.114Z,96.33
2023-01-21T21:59:46.682Z,96.59
2023-01-21T22:03:24.282Z,96.31
2023-01-21T22:07:04.049Z,96.34
2023-01-21T22:10:40.947Z,96.39
2023-01-21T22:14:37.437Z,96.83
2023-01-21T22:18:05.107Z,97.32
2023-01-21T22:21:39.571Z,97.50
2023-01-21T22:25:17.165Z,96.39
2023-01-21T22:28:54.660Z,96.60
2023-01-21T22:32:50.925Z,96.36
2023-01-21T22:36:17.910Z,96.70
2023-01-21T22:39:52.563Z,96.61
2023-01-21T22:43:32.587Z,96.91
2023-01-21T22:47:08.108Z,97.28
2023-01-21T22:50:45.783Z,96.68
2023-01-21T22:54:23.326Z,96.55
2023-01-21T22:58:04.026Z,96.45
2023-01-21T23:02:01.064Z,96.44
2023-01-21T23:05:30.048Z,96.45
2023-01-21T23:09:04.242Z,96.66
2023-01-21T23:12:43.827Z,96.85
2023-01-21T23:16:19.701Z,97.00
2023-01-21T23:19:56.166Z,97.07
2023-01-21T23:23:52.447Z,97.20
2023-01-21T23:27:35.335Z,97.44
2023-01-21T23:31:12.819Z,97.08
2023-01-21T23:34:56.756Z,97.56
2023-01-21T23:38:22.842Z,97.46
2023-01-21T23:42:01.260Z,97.30
2023-01-21T23:45:40.943Z,97.80
2023-01-21T23:49:17.946Z,97.83
2023-01-21T23:53:12.258Z,97.70
2023-01-21T23:56:38.403Z,97.83
